Time;durP1;ratioP1;P1;durP2;ratioP2;P2;SDS_P1;SDS_P2;PMS_P1;PMS_P2;Temp;Humidity;BMP_temperature;BMP_pressure;BME280_temperature;BME280_humidity;BME280_pressure;Samples;Min_cycle;Max_cycle;Signal;HPM_P1;HPM_P2
2023/06/02 00:02:51;;;;;;;18.30;2.90;;;;;;;9.73;100.00;102096.34;10244825;28;20036;-67
2023/06/02 00:07:52;;;;;;;14.20;3.05;;;;;;;9.77;100.00;102103.09;10247746;28;20035;-68
2023/06/02 00:12:52;;;;;;;13.23;1.98;;;;;;;9.79;100.00;102098.22;10248663;28;20039;-68
2023/06/02 00:17:53;;;;;;;7.72;2.47;;;;;;;9.79;100.00;102106.47;10253844;28;20039;-68
2023/06/02 00:22:54;;;;;;;9.68;2.28;;;;;;;9.69;100.00;102095.09;10226741;28;20080;-68
2023/06/02 00:27:54;;;;;;;11.57;2.00;;;;;;;9.56;100.00;102085.00;10257623;28;20054;-68
2023/06/02 00:32:55;;;;;;;9.77;2.17;;;;;;;9.47;100.00;102078.94;10274721;28;20119;-68
2023/06/02 00:37:55;;;;;;;16.75;2.10;;;;;;;9.47;100.00;102078.94;10269942;28;20063;-67
2023/06/02 00:43:01;;;;;;;18.83;3.05;;;;;;;9.41;100.00;102077.03;10287337;28;20085;-67
2023/06/02 00:48:02;;;;;;;12.70;1.73;;;;;;;9.38;100.00;102080.22;10301328;28;20475;-68
2023/06/02 00:53:03;;;;;;;11.68;2.00;;;;;;;9.38;100.00;102085.72;10285329;28;20450;-68
2023/06/02 00:58:07;;;;;;;8.90;1.60;;;;;;;9.42;100.00;102084.22;10294253;28;20038;-68
2023/06/02 01:03:07;;;;;;;12.50;3.13;;;;;;;9.47;100.00;102078.94;10294335;28;20126;-68
2023/06/02 01:08:08;;;;;;;13.70;2.70;;;;;;;9.46;100.00;102082.72;10265397;28;20042;-68
2023/06/02 01:13:09;;;;;;;16.55;1.80;;;;;;;9.47;100.00;102081.69;10250421;28;20058;-68
2023/06/02 01:18:10;;;;;;;11.45;2.85;;;;;;;9.53;100.00;102090.97;10254780;28;20062;-68
2023/06/02 01:23:18;;;;;;;10.73;1.90;;;;;;;9.47;100.00;102080.84;10253996;28;20039;-67
2023/06/02 01:28:19;;;;;;;13.52;1.73;;;;;;;9.56;100.00;102089.69;10228188;28;20062;-68
2023/06/02 01:33:22;;;;;;;9.27;1.70;;;;;;;9.56;100.00;102093.25;10267949;28;20039;-68
2023/06/02 01:38:23;;;;;;;13.73;2.60;;;;;;;9.60;100.00;102096.44;10291034;28;20422;-68
2023/06/02 01:43:23;;;;;;;12.38;2.25;;;;;;;9.63;100.00;102090.47;10293146;28;20042;-68
2023/06/02 01:48:24;;;;;;;8.18;1.70;;;;;;;9.62;100.00;102080.56;10293904;28;20451;-67
2023/06/02 01:53:26;;;;;;;15.02;1.98;;;;;;;9.59;100.00;102075.47;10282673;28;20089;-68
2023/06/02 01:58:32;;;;;;;15.70;3.47;;;;;;;9.67;100.00;102080.72;10271006;28;20053;-68
2023/06/02 02:03:33;;;;;;;14.85;2.38;;;;;;;9.67;100.00;102078.84;10258351;28;20047;-68
2023/06/02 02:08:34;;;;;;;16.58;3.13;;;;;;;9.63;100.00;102084.97;10251665;28;20071;-68
2023/06/02 02:13:35;;;;;;;10.18;2.08;;;;;;;9.70;100.00;102083.91;10259638;28;20058;-68
2023/06/02 02:18:35;;;;;;;21.25;2.60;;;;;;;9.74;100.00;102089.81;10245733;28;20039;-68
2023/06/02 02:23:36;;;;;;;10.60;2.25;;;;;;;9.77;100.00;102080.28;10294870;28;20034;-67
2023/06/02 02:28:37;;;;;;;13.13;1.98;;;;;;;9.75;100.00;102076.91;10291789;28;20034;-68
2023/06/02 02:33:38;;;;;;;16.20;2.80;;;;;;;9.77;100.00;102069.28;10281943;28;20058;-67
2023/06/02 02:38:38;;;;;;;16.08;1.85;;;;;;;9.83;100.00;102076.66;10289043;28;20042;-68
2023/06/02 02:43:39;;;;;;;11.02;1.70;;;;;;;9.87;100.00;102086.16;10279764;28;20043;-68
2023/06/02 02:48:40;;;;;;;10.80;2.05;;;;;;;9.86;100.00;102084.44;10278831;28;20043;-67
2023/06/02 02:53:40;;;;;;;18.00;3.42;;;;;;;9.85;100.00;102071.75;10262757;28;20039;-68
2023/06/02 02:58:41;;;;;;;7.53;1.80;;;;;;;9.88;100.00;102082.31;10251430;28;20043;-67
2023/06/02 03:03:42;;;;;;;15.30;2.50;;;;;;;9.89;100.00;102084.84;10250699;28;20039;-68
2023/06/02 03:08:43;;;;;;;13.07;1.98;;;;;;;9.93;100.00;102088.00;10225724;28;20045;-69
2023/06/02 03:13:44;;;;;;;12.57;2.13;;;;;;;9.94;100.00;102086.09;10249694;28;20103;-68
2023/06/02 03:18:44;;;;;;;11.77;2.38;;;;;;;9.93;100.00;102084.44;10233240;28;20071;-67
2023/06/02 03:23:45;;;;;;;14.25;2.03;;;;;;;9.96;100.00;102081.22;10254824;28;20038;-68
2023/06/02 03:28:45;;;;;;;15.93;2.28;;;;;;;9.94;100.00;102081.44;10251361;28;20065;-68
2023/06/02 03:33:49;;;;;;;13.93;2.70;;;;;;;9.96;100.00;102089.47;10249892;28;20054;-69
2023/06/02 03:38:49;;;;;;;12.48;2.20;;;;;;;9.96;100.00;102078.47;10264581;28;20667;-68
2023/06/02 03:43:50;;;;;;;17.70;3.17;;;;;;;9.99;100.00;102084.38;10271133;28;20461;-68
2023/06/02 03:48:52;;;;;;;22.45;2.03;;;;;;;10.01;100.00;102076.75;10252187;28;20055;-67
2023/06/02 03:53:54;;;;;;;7.30;2.08;;;;;;;10.04;100.00;102084.53;10239972;28;20040;-68
2023/06/02 03:58:54;;;;;;;6.57;1.88;;;;;;;10.08;100.00;102093.22;10227285;28;20031;-68
2023/06/02 04:03:55;;;;;;;11.23;2.03;;;;;;;10.14;100.00;102091.50;10248679;28;20043;-69
2023/06/02 04:08:56;;;;;;;13.15;2.50;;;;;;;10.16;100.00;102090.19;10232110;28;20122;-68
2023/06/02 04:13:57;;;;;;;7.22;1.80;;;;;;;10.22;100.00;102092.06;10251108;28;20062;-68
2023/06/02 04:18:57;;;;;;;12.63;1.85;;;;;;;10.27;100.00;102091.38;10242322;28;20064;-68
2023/06/02 04:23:59;;;;;;;16.77;3.33;;;;;;;10.30;100.00;102097.31;10295569;28;20040;-69
2023/06/02 04:29:00;;;;;;;15.88;4.60;;;;;;;10.35;100.00;102090.31;10257383;28;25360;-68
2023/06/02 04:34:00;;;;;;;17.95;4.05;;;;;;;10.41;100.00;102097.69;10261479;28;20051;-68
2023/06/02 04:39:01;;;;;;;10.57;2.28;;;;;;;10.57;100.00;102096.28;10256150;28;20050;-68
2023/06/02 04:44:02;;;;;;;17.30;2.53;;;;;;;10.73;100.00;102100.38;10257476;28;20067;-68
2023/06/02 04:49:07;;;;;;;13.27;2.03;;;;;;;10.76;100.00;102095.28;10255170;28;20051;-67
2023/06/02 04:54:08;;;;;;;12.63;2.67;;;;;;;10.75;100.00;102106.50;10259064;28;20047;-67
2023/06/02 04:59:09;;;;;;;16.38;2.88;;;;;;;10.75;100.00;102099.09;10255900;28;20118;-68
2023/06/02 05:04:09;;;;;;;18.15;2.35;;;;;;;10.88;100.00;102098.13;10253839;28;20035;-67
2023/06/02 05:09:11;;;;;;;18.15;2.67;;;;;;;11.02;100.00;102104.38;10276846;28;20118;-68
2023/06/02 05:14:12;;;;;;;15.52;2.58;;;;;;;11.18;100.00;102102.91;10298082;28;20106;-68
2023/06/02 05:19:12;;;;;;;15.00;2.45;;;;;;;11.26;100.00;102117.22;10301143;28;20097;-67
2023/06/02 05:24:13;;;;;;;18.77;3.78;;;;;;;11.29;100.00;102115.94;10277595;28;20046;-68
2023/06/02 05:29:13;;;;;;;13.45;3.38;;;;;;;11.41;100.00;102114.13;10262180;28;20035;-68
2023/06/02 05:34:15;;;;;;;21.65;4.97;;;;;;;11.44;100.00;102108.13;10236406;28;20099;-68
2023/06/02 05:39:15;;;;;;;15.90;3.85;;;;;;;11.61;100.00;102107.50;10252193;28;20063;-69
2023/06/02 05:44:16;;;;;;;18.35;2.90;;;;;;;11.82;100.00;102101.50;10255455;28;20038;-68
2023/06/02 05:49:18;;;;;;;16.02;3.42;;;;;;;12.05;100.00;102103.56;10255714;28;20039;-68
2023/06/02 05:54:18;;;;;;;14.30;3.45;;;;;;;12.41;100.00;102103.69;10255060;28;20047;-68
2023/06/02 05:59:19;;;;;;;16.25;3.42;;;;;;;12.55;100.00;102102.38;10293712;28;20042;-69
2023/06/02 06:04:19;;;;;;;13.20;3.33;;;;;;;12.74;100.00;102096.78;10293416;28;20043;-70
2023/06/02 06:09:20;;;;;;;19.30;4.25;;;;;;;12.84;100.00;102106.13;10294468;28;20059;-69
2023/06/02 06:14:20;;;;;;;23.80;4.50;;;;;;;13.12;100.00;102110.97;10293672;28;20046;-70
2023/06/02 06:19:21;;;;;;;17.63;3.33;;;;;;;13.36;100.00;102113.72;10294876;28;20038;-70
2023/06/02 06:24:21;;;;;;;19.70;3.20;;;;;;;13.75;100.00;102104.88;10273449;28;20046;-69
2023/06/02 06:29:22;;;;;;;13.52;3.42;;;;;;;13.89;100.00;102112.63;10294611;28;20039;-69
2023/06/02 06:34:22;;;;;;;16.25;3.05;;;;;;;13.93;100.00;102113.81;10294459;28;20053;-69
2023/06/02 06:39:23;;;;;;;23.83;3.50;;;;;;;13.87;100.00;102109.25;10294111;28;20074;-69
2023/06/02 06:44:23;;;;;;;14.68;3.00;;;;;;;13.63;100.00;102124.25;10294399;28;20038;-70
2023/06/02 06:49:23;;;;;;;18.20;4.22;;;;;;;14.05;100.00;102124.00;10292446;28;20030;-70
2023/06/02 06:54:24;;;;;;;12.05;3.83;;;;;;;14.68;100.00;102108.25;10286671;28;20038;-69
2023/06/02 06:59:24;;;;;;;12.10;2.75;;;;;;;15.07;100.00;102106.38;10293101;28;20054;-69
2023/06/02 07:04:25;;;;;;;10.80;3.05;;;;;;;15.28;100.00;102110.28;10275867;28;20035;-69
2023/06/02 07:09:26;;;;;;;18.27;3.35;;;;;;;15.25;100.00;102119.09;10292911;28;20498;-69
2023/06/02 07:14:27;;;;;;;14.50;2.97;;;;;;;15.12;100.00;102123.09;10292059;28;20046;-68
2023/06/02 07:19:28;;;;;;;14.38;3.78;;;;;;;15.04;100.00;102129.06;10293273;28;20502;-68
2023/06/02 07:24:28;;;;;;;15.50;3.08;;;;;;;14.75;100.00;102135.81;10265839;28;20058;-69
2023/06/02 07:29:29;;;;;;;16.88;2.70;;;;;;;14.77;100.00;102140.00;10249534;28;20035;-68
2023/06/02 07:34:29;;;;;;;20.10;2.83;;;;;;;15.19;100.00;102142.31;10250335;28;20071;-68
2023/06/02 07:39:30;;;;;;;16.42;3.42;;;;;;;15.26;100.00;102142.16;10251877;28;20043;-67
2023/06/02 07:44:30;;;;;;;14.23;3.42;;;;;;;15.14;100.00;102140.31;10253471;28;20035;-68
2023/06/02 07:49:31;;;;;;;14.48;2.80;;;;;;;15.48;100.00;102148.59;10256037;28;20043;-68
2023/06/02 07:54:31;;;;;;;17.27;2.80;;;;;;;15.63;100.00;102138.78;10274048;28;20046;-68
2023/06/02 07:59:32;;;;;;;13.23;2.35;;;;;;;15.63;100.00;102120.19;10267773;28;20094;-68
2023/06/02 08:04:32;;;;;;;10.52;1.75;;;;;;;15.82;100.00;102117.97;10275615;28;20042;-68
2023/06/02 08:09:33;;;;;;;10.32;2.03;;;;;;;16.03;100.00;102134.88;10283415;28;20035;-68
2023/06/02 08:14:33;;;;;;;11.98;3.33;;;;;;;16.33;100.00;102132.41;10285171;28;20549;-67
2023/06/02 08:19:35;;;;;;;15.13;2.17;;;;;;;16.75;100.00;102119.72;10283989;28;20491;-68
2023/06/02 08:24:37;;;;;;;13.95;1.88;;;;;;;16.78;100.00;102121.13;10281995;28;20521;-68
2023/06/02 08:29:37;;;;;;;10.73;2.38;;;;;;;16.79;100.00;102120.03;10282056;28;20039;-67
2023/06/02 08:34:41;;;;;;;8.52;1.92;;;;;;;17.02;100.00;102114.13;10283849;28;20511;-67
2023/06/02 08:39:45;;;;;;;12.30;2.85;;;;;;;17.28;100.00;102109.56;10295551;28;20069;-68
2023/06/02 08:44:45;;;;;;;15.60;4.00;;;;;;;17.57;100.00;102113.84;10284521;28;20478;-68
2023/06/02 08:49:46;;;;;;;8.93;2.35;;;;;;;17.45;100.00;102112.16;10284844;28;20050;-68
2023/06/02 08:54:47;;;;;;;6.07;0.95;;;;;;;17.39;100.00;102093.75;10280758;28;20046;-67
2023/06/02 08:59:47;;;;;;;6.22;1.13;;;;;;;17.59;100.00;102089.38;10278084;28;20071;-67
2023/06/02 09:04:48;;;;;;;3.78;0.70;;;;;;;17.82;100.00;102083.34;10262738;28;20094;-68
2023/06/02 09:09:51;;;;;;;7.70;1.08;;;;;;;18.14;100.00;102091.50;10259784;28;20035;-69
2023/06/02 09:15:08;;;;;;;5.75;1.70;;;;;;;18.35;100.00;102089.63;10255537;28;20035;-67
2023/06/02 09:20:12;;;;;;;6.03;0.90;;;;;;;18.32;99.63;102073.44;10257091;28;20043;-67
2023/06/02 09:25:20;;;;;;;2.55;1.13;;;;;;;18.21;96.08;102080.13;10255220;28;20147;-68
2023/06/02 09:30:20;;;;;;;2.10;0.60;;;;;;;18.45;100.00;102088.75;10256364;28;20048;-68
2023/06/02 09:35:40;;;;;;;2.55;0.47;;;;;;;18.75;95.61;102085.13;10239062;28;20039;-67
2023/06/02 09:40:41;;;;;;;13.30;2.15;;;;;;;18.61;95.42;102083.19;10223019;28;20031;-69
2023/06/02 09:45:48;;;;;;;3.75;0.68;;;;;;;18.12;98.43;102101.28;10254883;28;20059;-68
2023/06/02 09:50:48;;;;;;;3.88;1.13;;;;;;;18.38;97.99;102101.31;10253197;28;20047;-68
2023/06/02 09:55:50;;;;;;;2.20;0.80;;;;;;;18.85;98.04;102089.06;10236316;28;20047;-68
2023/06/02 10:00:50;;;;;;;3.58;0.70;;;;;;;19.20;94.08;102084.53;10256487;28;20051;-68
2023/06/02 10:06:26;;;;;;;4.20;0.90;;;;;;;19.61;93.73;102101.16;10256192;28;20069;-70
2023/06/02 10:11:37;;;;;;;3.92;0.70;;;;;;;19.84;91.06;102094.91;10222319;28;20054;-69
2023/06/02 10:17:05;;;;;;;4.30;0.70;;;;;;;19.58;83.09;102080.22;10259640;28;20047;-69
2023/06/02 10:22:25;;;;;;;2.30;0.75;;;;;;;19.52;78.61;102070.19;10268927;28;20050;-69
2023/06/02 10:27:33;;;;;;;1.02;0.68;;;;;;;19.78;78.43;102062.53;10292227;28;20123;-68
2023/06/02 10:32:45;;;;;;;3.72;0.65;;;;;;;20.29;80.64;102076.19;10293970;28;20556;-68
2023/06/02 10:37:45;;;;;;;6.60;1.00;;;;;;;20.03;75.75;102055.13;10293366;28;20065;-70
2023/06/02 10:43:08;;;;;;;4.22;1.02;;;;;;;20.01;78.16;102074.13;10290498;28;20034;-69
2023/06/02 10:48:34;;;;;;;2.75;1.02;;;;;;;20.04;76.31;102062.41;10275963;28;20098;-72
2023/06/02 10:54:04;;;;;;;2.78;0.60;;;;;;;20.33;78.09;102079.25;10268335;28;20047;-69
2023/06/02 10:59:05;;;;;;;2.72;0.85;;;;;;;20.41;76.70;102069.41;10271517;28;20039;-73
2023/06/02 11:04:24;;;;;;;2.45;0.85;;;;;;;20.83;79.86;102070.72;10272825;28;20037;-71
2023/06/02 11:09:35;;;;;;;1.60;0.93;;;;;;;21.13;79.47;102073.22;10263520;28;20043;-71
2023/06/02 11:15:14;;;;;;;3.63;0.80;;;;;;;21.20;79.53;102072.03;10254492;28;20043;-72
2023/06/02 11:20:15;;;;;;;2.97;1.10;;;;;;;21.04;85.78;102088.16;10167976;29;20048;-71
2023/06/02 11:25:16;;;;;;;4.13;1.23;;;;;;;20.29;82.77;102078.97;10239764;28;20045;-71
2023/06/02 11:30:17;;;;;;;3.70;1.30;;;;;;;20.13;83.58;102085.81;10269856;28;20059;-71
2023/06/02 11:35:20;;;;;;;5.07;1.13;;;;;;;20.18;86.94;102088.59;10273105;28;20051;-71
2023/06/02 11:40:21;;;;;;;6.32;1.55;;;;;;;20.17;88.19;102089.69;10269898;28;20039;-71
2023/06/02 11:45:23;;;;;;;2.65;0.90;;;;;;;21.15;87.71;102072.91;10272345;28;20564;-73
2023/06/02 11:50:23;;;;;;;4.82;1.63;;;;;;;21.14;84.35;102071.25;10270175;28;20083;-74
2023/06/02 11:55:28;;;;;;;6.18;1.33;;;;;;;20.35;86.51;102083.41;10261872;28;20046;-74
2023/06/02 12:00:30;;;;;;;5.32;1.95;;;;;;;21.58;84.23;102059.00;10267531;28;20394;-73
2023/06/02 12:05:31;;;;;;;4.45;0.80;;;;;;;22.51;80.94;102052.81;10274260;28;20042;-70
2023/06/02 12:10:32;;;;;;;5.15;1.80;;;;;;;21.92;81.74;102074.78;10290856;28;20039;-71
2023/06/02 12:15:33;;;;;;;3.42;1.08;;;;;;;21.55;83.36;102068.81;10292362;28;20066;-71
2023/06/02 12:20:38;;;;;;;2.95;1.20;;;;;;;20.98;82.93;102078.13;10289852;28;20054;-71
2023/06/02 12:25:39;;;;;;;3.33;1.00;;;;;;;21.20;82.76;102064.44;10289476;28;20049;-73
2023/06/02 12:30:39;;;;;;;3.45;0.95;;;;;;;23.09;77.64;102051.50;10289558;28;20045;-74
2023/06/02 12:35:40;;;;;;;3.15;1.40;;;;;;;23.16;77.77;102064.00;10290266;28;20113;-76
2023/06/02 12:40:41;;;;;;;4.45;1.25;;;;;;;23.50;80.19;102068.41;10291914;28;20054;-77
2023/06/02 12:45:41;;;;;;;6.20;1.20;;;;;;;23.60;76.37;102052.44;10281120;28;20058;-71
2023/06/02 12:50:42;;;;;;;2.67;1.35;;;;;;;24.64;74.33;102028.06;10297836;28;20046;-72
2023/06/02 12:55:42;;;;;;;3.88;1.90;;;;;;;23.84;74.76;102044.63;10271265;28;20043;-71
2023/06/02 13:00:43;;;;;;;4.28;1.63;;;;;;;22.18;81.38;102072.44;10257846;28;20050;-72
2023/06/02 13:06:03;;;;;;;6.10;1.42;;;;;;;22.83;79.39;102065.19;10259171;28;20039;-72
2023/06/02 13:11:03;;;;;;;4.65;1.70;;;;;;;22.69;77.71;102059.53;10241241;28;20135;-72
2023/06/02 13:16:04;;;;;;;3.22;1.38;;;;;;;22.64;79.31;102068.91;10258048;28;20171;-72
2023/06/02 13:21:05;;;;;;;5.68;1.88;;;;;;;22.19;81.87;102079.69;10257630;28;20474;-74
2023/06/02 13:26:05;;;;;;;3.17;1.65;;;;;;;21.82;80.40;102078.53;10255716;28;20091;-75
2023/06/02 13:31:06;;;;;;;5.25;1.73;;;;;;;23.53;75.43;102056.50;10257102;28;20050;-78
2023/06/02 13:36:06;;;;;;;5.70;1.50;;;;;;;23.72;74.19;102058.38;10257961;28;20035;-72
2023/06/02 13:41:07;;;;;;;4.57;1.83;;;;;;;24.50;73.96;102061.09;10255364;28;20039;-70
2023/06/02 13:46:08;;;;;;;3.92;1.50;;;;;;;24.10;69.55;102049.63;10269012;28;20051;-70
2023/06/02 13:51:08;;;;;;;6.60;2.17;;;;;;;22.87;73.51;102069.06;10244472;28;20425;-71
2023/06/02 13:56:08;;;;;;;5.45;1.90;;;;;;;22.81;76.52;102079.53;10266220;28;20503;-71
2023/06/02 14:01:10;;;;;;;4.28;1.52;;;;;;;22.07;76.87;102082.13;10272112;28;20369;-71
2023/06/02 14:06:11;;;;;;;3.00;1.60;;;;;;;21.94;78.87;102090.16;10264253;28;20039;-68
2023/06/02 14:11:11;;;;;;;5.55;1.70;;;;;;;21.60;81.02;102093.16;10255897;28;20058;-71
2023/06/02 14:16:12;;;;;;;6.07;1.95;;;;;;;21.23;81.49;102097.47;10253778;28;20043;-70
2023/06/02 14:21:12;;;;;;;3.13;1.70;;;;;;;20.89;82.42;102087.16;10252635;28;20066;-70
2023/06/02 14:26:13;;;;;;;4.57;1.48;;;;;;;20.53;82.93;102081.06;10252674;28;20050;-70
2023/06/02 14:31:13;;;;;;;5.40;2.60;;;;;;;20.80;83.15;102093.72;10222674;28;20043;-71
2023/06/02 14:36:14;;;;;;;3.67;1.77;;;;;;;22.44;79.55;102080.47;10255048;28;20118;-70
2023/06/02 14:41:14;;;;;;;5.32;2.10;;;;;;;22.61;77.25;102037.78;10254967;28;20027;-70
2023/06/02 14:46:15;;;;;;;7.95;1.85;;;;;;;21.98;79.75;102076.38;10236909;28;20031;-70
2023/06/02 14:51:16;;;;;;;7.32;2.30;;;;;;;21.00;83.31;102092.66;10235314;28;20534;-73
2023/06/02 14:56:17;;;;;;;4.25;2.13;;;;;;;21.23;83.55;102091.03;10251738;28;20043;-71
2023/06/02 15:01:18;;;;;;;5.75;2.35;;;;;;;23.47;78.90;102085.88;10254329;28;20039;-71
2023/06/02 15:06:19;;;;;;;2.88;1.63;;;;;;;23.24;77.66;102070.91;10253165;28;20032;-70
2023/06/02 15:11:19;;;;;;;6.97;1.90;;;;;;;22.09;81.74;102082.66;10252206;28;20047;-71
2023/06/02 15:16:20;;;;;;;6.32;1.88;;;;;;;21.37;83.15;102089.19;10236030;28;20039;-73
2023/06/02 15:21:20;;;;;;;7.68;2.00;;;;;;;21.02;85.32;102096.84;10219740;28;20189;-70
2023/06/02 15:26:22;;;;;;;8.30;2.40;;;;;;;20.90;87.01;102094.44;10252202;28;20043;-70
2023/06/02 15:31:22;;;;;;;6.40;2.00;;;;;;;21.39;85.01;102088.88;10252087;28;20043;-69
2023/06/02 15:36:29;;;;;;;4.72;2.70;;;;;;;21.52;81.75;102080.63;10251499;28;20031;-71
2023/06/02 15:41:29;;;;;;;6.65;2.38;;;;;;;22.25;81.71;102077.69;10251650;28;20038;-69
2023/06/02 15:46:30;;;;;;;4.93;2.03;;;;;;;23.95;79.96;102068.53;10252790;28;20035;-71
2023/06/02 15:51:30;;;;;;;5.60;1.75;;;;;;;25.18;75.12;102056.97;10235656;28;20039;-71
2023/06/02 15:56:30;;;;;;;3.25;1.83;;;;;;;24.63;74.50;102062.16;10251998;28;20043;-72
2023/06/02 16:01:31;;;;;;;8.27;1.70;;;;;;;25.32;72.63;102048.44;10253284;28;20043;-72
2023/06/02 16:06:33;;;;;;;5.72;2.00;;;;;;;25.51;72.73;102055.78;10252455;28;20035;-71
2023/06/02 16:11:34;;;;;;;3.75;1.40;;;;;;;25.49;73.29;102052.47;10219252;28;20057;-72
2023/06/02 16:16:35;;;;;;;5.45;2.28;;;;;;;25.87;69.48;102038.59;10237450;28;20098;-70
2023/06/02 16:21:37;;;;;;;2.80;1.88;;;;;;;26.42;69.87;102041.91;10259795;28;20491;-70
2023/06/02 16:26:39;;;;;;;2.40;1.42;;;;;;;26.76;67.13;102035.38;10299360;28;20059;-73
2023/06/02 16:31:39;;;;;;;4.60;1.55;;;;;;;25.90;68.93;102031.47;10300337;28;20039;-71
2023/06/02 16:36:40;;;;;;;6.32;1.63;;;;;;;26.28;67.63;102033.63;10283598;28;20472;-70
2023/06/02 16:41:41;;;;;;;3.22;1.30;;;;;;;25.88;66.88;102030.94;10283053;28;20566;-70
2023/06/02 16:46:42;;;;;;;4.90;1.20;;;;;;;25.60;68.78;102030.44;10282761;28;20050;-70
2023/06/02 16:51:43;;;;;;;2.55;1.30;;;;;;;24.50;69.94;102035.75;10252707;28;20043;-68
2023/06/02 16:56:43;;;;;;;4.90;1.55;;;;;;;23.61;73.70;102059.75;10292205;28;20053;-70
2023/06/02 17:01:44;;;;;;;4.93;1.75;;;;;;;22.92;74.22;102061.38;10283515;28;20419;-68
2023/06/02 17:06:44;;;;;;;3.22;1.27;;;;;;;21.70;75.17;102061.34;10295899;28;20415;-68
2023/06/02 17:11:45;;;;;;;5.03;1.52;;;;;;;20.48;79.85;102076.31;10297034;28;20380;-69
2023/06/02 17:16:45;;;;;;;2.83;1.33;;;;;;;20.85;81.54;102083.28;10295093;28;20039;-70
2023/06/02 17:21:46;;;;;;;4.38;1.52;;;;;;;20.91;79.75;102070.09;10296366;28;20208;-70
2023/06/02 17:26:47;;;;;;;4.00;1.38;;;;;;;20.82;82.28;102080.28;10296332;28;20070;-70
2023/06/02 17:31:47;;;;;;;6.18;1.70;;;;;;;20.32;80.89;102078.41;10296530;28;20399;-70
2023/06/02 17:36:49;;;;;;;2.92;1.30;;;;;;;19.88;81.84;102075.63;10293390;28;20035;-68
2023/06/02 17:41:50;;;;;;;4.95;1.33;;;;;;;19.63;83.34;102087.72;10295822;28;20551;-68
2023/06/02 17:46:50;;;;;;;5.20;1.45;;;;;;;19.48;85.04;102099.81;10292723;28;20035;-69
2023/06/02 17:51:51;;;;;;;3.05;1.20;;;;;;;19.31;84.47;102102.94;10298322;28;20077;-68
2023/06/02 17:56:52;;;;;;;5.43;1.00;;;;;;;18.99;86.59;102100.50;10306325;28;20066;-68
2023/06/02 18:01:53;;;;;;;4.95;0.90;;;;;;;18.97;86.67;102119.47;10292691;28;20034;-68
2023/06/02 18:06:53;;;;;;;5.63;1.48;;;;;;;18.64;86.76;102122.50;10291750;28;20043;-68
2023/06/02 18:11:54;;;;;;;7.72;1.08;;;;;;;18.45;86.24;102118.59;10289195;28;20035;-69
2023/06/02 18:16:55;;;;;;;4.47;1.45;;;;;;;18.42;88.61;102120.00;10291864;28;20046;-69
2023/06/02 18:21:55;;;;;;;3.33;1.52;;;;;;;18.41;88.28;102129.47;10293389;28;20046;-69
2023/06/02 18:26:56;;;;;;;2.60;0.90;;;;;;;18.22;87.99;102115.22;10281045;28;20038;-69
2023/06/02 18:31:56;;;;;;;7.50;1.15;;;;;;;18.22;90.43;102137.53;10251540;28;20051;-69
2023/06/02 18:36:57;;;;;;;2.13;1.20;;;;;;;17.90;90.02;102134.91;10242560;28;20043;-69
2023/06/02 18:41:57;;;;;;;4.07;1.48;;;;;;;17.73;89.67;102140.66;10250972;28;20040;-69
2023/06/02 18:46:58;;;;;;;2.53;1.02;;;;;;;17.51;90.70;102122.19;10247719;28;20303;-69
2023/06/02 18:52:00;;;;;;;3.22;1.15;;;;;;;17.38;89.77;102141.31;10252492;28;20071;-69
2023/06/02 18:57:01;;;;;;;3.22;0.95;;;;;;;17.15;89.67;102135.06;10260072;28;20043;-69
2023/06/02 19:02:02;;;;;;;5.13;1.13;;;;;;;16.98;91.34;102151.09;10288739;28;20539;-69
2023/06/02 19:07:02;;;;;;;3.35;1.00;;;;;;;16.79;92.37;102164.53;10259752;28;20077;-69
2023/06/02 19:12:05;;;;;;;4.78;0.93;;;;;;;16.54;94.35;102154.84;10257804;28;20446;-69
2023/06/02 19:17:07;;;;;;;2.80;0.90;;;;;;;16.46;97.54;102163.66;10234983;28;20055;-69
2023/06/02 19:22:08;;;;;;;2.35;1.20;;;;;;;16.23;98.17;102157.31;10248220;28;20050;-68
2023/06/02 19:27:09;;;;;;;1.70;1.00;;;;;;;16.11;99.33;102159.41;10261210;28;20047;-69
2023/06/02 19:32:10;;;;;;;2.55;0.85;;;;;;;15.95;100.00;102177.81;10262402;28;20039;-69
2023/06/02 19:37:11;;;;;;;3.17;1.17;;;;;;;15.81;100.00;102174.56;10289507;28;20035;-69
2023/06/02 19:42:11;;;;;;;3.53;0.85;;;;;;;15.65;100.00;102181.84;10288834;28;20042;-69
2023/06/02 19:47:12;;;;;;;2.50;1.20;;;;;;;15.38;100.00;102173.41;10286757;28;20034;-69
2023/06/02 19:52:12;;;;;;;3.85;1.23;;;;;;;15.33;100.00;102187.22;10276369;28;20039;-68
2023/06/02 19:57:13;;;;;;;3.15;1.00;;;;;;;15.18;100.00;102189.75;10291880;28;20043;-69
2023/06/02 20:02:13;;;;;;;5.80;1.85;;;;;;;15.02;100.00;102203.34;10290066;28;20507;-69
2023/06/02 20:07:14;;;;;;;3.70;1.02;;;;;;;14.85;100.00;102196.97;10288788;28;20042;-69
2023/06/02 20:12:15;;;;;;;4.22;1.48;;;;;;;14.75;100.00;102196.81;10258229;28;20099;-69
2023/06/02 20:17:15;;;;;;;3.33;1.02;;;;;;;14.62;100.00;102203.50;10250725;28;20039;-69
2023/06/02 20:22:16;;;;;;;5.03;0.93;;;;;;;14.47;100.00;102223.41;10264247;28;20104;-69
2023/06/02 20:27:16;;;;;;;3.13;0.98;;;;;;;14.27;100.00;102218.31;10261118;28;20110;-69
2023/06/02 20:32:17;;;;;;;5.25;1.42;;;;;;;14.11;100.00;102231.00;10274099;28;20039;-69
2023/06/02 20:37:17;;;;;;;2.40;1.42;;;;;;;13.95;100.00;102237.31;10253407;28;20047;-68
2023/06/02 20:42:18;;;;;;;3.25;1.20;;;;;;;13.78;100.00;102246.34;10257779;28;20042;-70
2023/06/02 20:47:18;;;;;;;3.17;1.00;;;;;;;13.59;100.00;102250.34;10231625;28;20043;-69
2023/06/02 20:52:19;;;;;;;3.55;1.30;;;;;;;13.46;100.00;102251.44;10265624;28;20447;-69
2023/06/02 20:57:19;;;;;;;3.15;1.08;;;;;;;13.32;100.00;102250.81;10270853;28;20471;-69
2023/06/02 21:02:20;;;;;;;4.45;1.08;;;;;;;13.20;100.00;102253.53;10273297;28;20122;-69
2023/06/02 21:07:20;;;;;;;4.18;1.00;;;;;;;12.76;100.00;102218.97;10265132;28;20039;-69
2023/06/02 21:12:21;;;;;;;2.85;1.08;;;;;;;12.93;100.00;102273.31;10260596;28;20039;-69
2023/06/02 21:17:21;;;;;;;5.13;1.15;;;;;;;12.66;100.00;102252.69;10269079;28;20046;-68
2023/06/02 21:22:22;;;;;;;4.05;1.58;;;;;;;12.62;100.00;102274.41;10294211;28;20155;-68
2023/06/02 21:27:22;;;;;;;2.33;0.98;;;;;;;12.40;100.00;102259.41;10295547;28;20046;-68
2023/06/02 21:32:23;;;;;;;1.98;0.85;;;;;;;12.37;100.00;102281.97;10277388;28;20091;-68
2023/06/02 21:37:23;;;;;;;2.33;1.35;;;;;;;12.25;100.00;102274.44;10295901;28;20042;-69
2023/06/02 21:42:24;;;;;;;2.83;1.13;;;;;;;12.15;100.00;102282.44;10270074;28;20058;-69
2023/06/02 21:47:25;;;;;;;5.65;1.30;;;;;;;12.05;100.00;102287.66;10251969;28;20054;-69
2023/06/02 21:52:26;;;;;;;2.40;0.93;;;;;;;11.96;100.00;102280.75;10253324;28;20043;-69
2023/06/02 21:57:26;;;;;;;7.18;1.23;;;;;;;11.85;100.00;102283.16;10251168;28;20039;-69
2023/06/02 22:02:29;;;;;;;2.05;0.73;;;;;;;11.77;100.00;102286.22;10257116;28;20047;-67
2023/06/02 22:07:30;;;;;;;5.20;1.15;;;;;;;11.64;100.00;102286.38;10270644;28;20089;-69
2023/06/02 22:12:31;;;;;;;8.57;0.90;;;;;;;11.54;100.00;102283.28;10279144;28;20073;-69
2023/06/02 22:17:31;;;;;;;1.58;0.70;;;;;;;11.46;100.00;102290.75;10272703;28;20035;-70
2023/06/02 22:22:32;;;;;;;1.95;0.75;;;;;;;11.38;100.00;102284.69;10289195;28;20059;-70
2023/06/02 22:27:33;;;;;;;1.98;0.73;;;;;;;11.24;100.00;102284.78;10262267;28;20038;-70
2023/06/02 22:32:33;;;;;;;3.17;1.08;;;;;;;11.20;100.00;102285.47;10293435;28;20078;-69
2023/06/02 22:37:33;;;;;;;3.83;0.68;;;;;;;11.12;100.00;102297.63;10293165;28;20046;-70
2023/06/02 22:42:34;;;;;;;1.77;0.70;;;;;;;11.06;100.00;102281.97;10292326;28;20038;-70
2023/06/02 22:47:35;;;;;;;2.45;0.70;;;;;;;10.96;100.00;102273.38;10278224;28;20062;-69
2023/06/02 22:52:35;;;;;;;1.38;0.85;;;;;;;10.94;100.00;102286.53;10291944;28;20046;-70
2023/06/02 22:57:36;;;;;;;3.55;0.80;;;;;;;10.86;100.00;102295.88;10291895;28;20063;-69